sensor_id;sensor_type;location;lat;lon;timestamp;temperature;humidity
2453;DHT22;63678;47.994;7.854;2023-09-19T00:00:32;18.30;99.90
2453;DHT22;63678;47.994;7.854;2023-09-19T00:03:06;18.20;99.90
2453;DHT22;63678;47.994;7.854;2023-09-19T00:05:39;18.30;99.90
2453;DHT22;63678;47.994;7.854;2023-09-19T00:08:12;18.40;99.90
2453;DHT22;63678;47.994;7.854;2023-09-19T00:10:46;18.30;99.90
2453;DHT22;63678;47.994;7.854;2023-09-19T00:21:04;18.50;99.90
2453;DHT22;63678;47.994;7.854;2023-09-19T00:23:37;18.30;99.90
2453;DHT22;63678;47.994;7.854;2023-09-19T00:28:45;18.20;99.90
2453;DHT22;63678;47.994;7.854;2023-09-19T00:31:38;18.20;99.90
2453;DHT22;63678;47.994;7.854;2023-09-19T00:34:11;18.30;99.90
2453;DHT22;63678;47.994;7.854;2023-09-19T00:36:44;18.20;99.90
2453;DHT22;63678;47.994;7.854;2023-09-19T00:39:17;18.30;99.90
2453;DHT22;63678;47.994;7.854;2023-09-19T00:41:52;18.30;99.90
2453;DHT22;63678;47.994;7.854;2023-09-19T00:44:25;18.20;99.90
2453;DHT22;63678;47.994;7.854;2023-09-19T00:49:32;18.20;99.90
2453;DHT22;63678;47.994;7.854;2023-09-19T00:52:07;18.30;99.90
2453;DHT22;63678;47.994;7.854;2023-09-19T00:54:42;18.30;99.90
2453;DHT22;63678;47.994;7.854;2023-09-19T00:57:15;18.30;99.90
2453;DHT22;63678;47.994;7.854;2023-09-19T00:59:49;18.40;99.90
2453;DHT22;63678;47.994;7.854;2023-09-19T01:02:22;18.30;99.90
2453;DHT22;63678;47.994;7.854;2023-09-19T01:04:56;18.30;99.90
2453;DHT22;63678;47.994;7.854;2023-09-19T01:07:30;18.40;99.90
2453;DHT22;63678;47.994;7.854;2023-09-19T01:10:05;18.40;99.90
2453;DHT22;63678;47.994;7.854;2023-09-19T01:15:59;18.50;99.90
2453;DHT22;63678;47.994;7.854;2023-09-19T01:30:43;18.50;99.90
2453;DHT22;63678;47.994;7.854;2023-09-19T01:33:16;18.50;99.90
2453;DHT22;63678;47.994;7.854;2023-09-19T01:35:52;18.50;99.90
2453;DHT22;63678;47.994;7.854;2023-09-19T01:38:31;18.50;99.90
2453;DHT22;63678;47.994;7.854;2023-09-19T01:41:11;18.40;99.90
2453;DHT22;63678;47.994;7.854;2023-09-19T01:43:46;18.50;99.90
2453;DHT22;63678;47.994;7.854;2023-09-19T01:46:25;18.60;99.90
2453;DHT22;63678;47.994;7.854;2023-09-19T01:49:32;18.60;99.90
2453;DHT22;63678;47.994;7.854;2023-09-19T01:52:12;18.60;99.90
2453;DHT22;63678;47.994;7.854;2023-09-19T01:54:52;18.60;99.90
2453;DHT22;63678;47.994;7.854;2023-09-19T01:57:29;18.60;99.90
2453;DHT22;63678;47.994;7.854;2023-09-19T02:00:10;18.60;99.90
2453;DHT22;63678;47.994;7.854;2023-09-19T02:02:46;18.60;99.90
2453;DHT22;63678;47.994;7.854;2023-09-19T02:05:24;18.60;99.90
2453;DHT22;63678;47.994;7.854;2023-09-19T02:07:57;18.60;99.90
2453;DHT22;63678;47.994;7.854;2023-09-19T02:10:30;18.60;99.90
2453;DHT22;63678;47.994;7.854;2023-09-19T02:13:30;18.60;99.90
2453;DHT22;63678;47.994;7.854;2023-09-19T02:16:04;18.50;99.90
2453;DHT22;63678;47.994;7.854;2023-09-19T02:18:36;18.40;99.90
2453;DHT22;63678;47.994;7.854;2023-09-19T02:21:09;18.10;99.90
2453;DHT22;63678;47.994;7.854;2023-09-19T02:23:45;18.00;99.90
2453;DHT22;63678;47.994;7.854;2023-09-19T02:26:19;17.90;99.90
2453;DHT22;63678;47.994;7.854;2023-09-19T02:28:52;17.80;99.90
2453;DHT22;63678;47.994;7.854;2023-09-19T02:31:25;17.90;99.90
2453;DHT22;63678;47.994;7.854;2023-09-19T02:33:58;18.00;99.90
2453;DHT22;63678;47.994;7.854;2023-09-19T02:36:32;18.00;99.90
2453;DHT22;63678;47.994;7.854;2023-09-19T02:39:04;18.10;99.90
2453;DHT22;63678;47.994;7.854;2023-09-19T02:41:38;18.10;99.90
2453;DHT22;63678;47.994;7.854;2023-09-19T02:44:12;18.10;99.90
2453;DHT22;63678;47.994;7.854;2023-09-19T02:46:44;18.10;99.90
2453;DHT22;63678;47.994;7.854;2023-09-19T02:51:50;17.60;99.90
2453;DHT22;63678;47.994;7.854;2023-09-19T02:56:56;17.40;99.90
2453;DHT22;63678;47.994;7.854;2023-09-19T02:59:29;17.40;99.90
2453;DHT22;63678;47.994;7.854;2023-09-19T03:02:03;17.50;99.90
2453;DHT22;63678;47.994;7.854;2023-09-19T03:04:38;17.50;99.90
2453;DHT22;63678;47.994;7.854;2023-09-19T03:09:44;17.50;99.90
2453;DHT22;63678;47.994;7.854;2023-09-19T03:12:17;17.50;99.90
2453;DHT22;63678;47.994;7.854;2023-09-19T03:14:50;17.60;99.90
2453;DHT22;63678;47.994;7.854;2023-09-19T03:17:23;17.70;99.90
2453;DHT22;63678;47.994;7.854;2023-09-19T03:19:56;17.70;99.90
2453;DHT22;63678;47.994;7.854;2023-09-19T03:25:03;17.90;99.90
2453;DHT22;63678;47.994;7.854;2023-09-19T03:27:42;17.80;99.90
2453;DHT22;63678;47.994;7.854;2023-09-19T03:30:14;17.70;99.90
2453;DHT22;63678;47.994;7.854;2023-09-19T03:32:48;17.70;99.90
2453;DHT22;63678;47.994;7.854;2023-09-19T03:35:23;17.70;99.90
2453;DHT22;63678;47.994;7.854;2023-09-19T03:40:29;17.80;99.90
2453;DHT22;63678;47.994;7.854;2023-09-19T03:43:02;17.70;99.90
2453;DHT22;63678;47.994;7.854;2023-09-19T03:45:35;17.80;99.90
2453;DHT22;63678;47.994;7.854;2023-09-19T03:48:10;17.80;99.90
2453;DHT22;63678;47.994;7.854;2023-09-19T03:50:43;17.70;99.90
2453;DHT22;63678;47.994;7.854;2023-09-19T03:53:16;17.80;99.90
2453;DHT22;63678;47.994;7.854;2023-09-19T03:58:44;17.70;99.90
2453;DHT22;63678;47.994;7.854;2023-09-19T04:01:16;17.70;99.90
2453;DHT22;63678;47.994;7.854;2023-09-19T04:03:50;17.70;99.90
2453;DHT22;63678;47.994;7.854;2023-09-19T04:06:26;17.70;99.90
2453;DHT22;63678;47.994;7.854;2023-09-19T04:11:35;17.80;99.90
2453;DHT22;63678;47.994;7.854;2023-09-19T04:14:07;17.80;99.90
2453;DHT22;63678;47.994;7.854;2023-09-19T04:19:13;17.70;99.90
2453;DHT22;63678;47.994;7.854;2023-09-19T04:21:47;17.80;99.90
2453;DHT22;63678;47.994;7.854;2023-09-19T04:24:19;17.80;99.90
2453;DHT22;63678;47.994;7.854;2023-09-19T04:26:52;17.80;99.90
2453;DHT22;63678;47.994;7.854;2023-09-19T04:29:24;17.80;99.90
2453;DHT22;63678;47.994;7.854;2023-09-19T04:34:50;17.90;99.90
2453;DHT22;63678;47.994;7.854;2023-09-19T04:37:23;17.80;99.90
2453;DHT22;63678;47.994;7.854;2023-09-19T04:42:33;17.90;99.90
2453;DHT22;63678;47.994;7.854;2023-09-19T04:45:06;17.90;99.90
2453;DHT22;63678;47.994;7.854;2023-09-19T04:50:12;17.80;99.90
2453;DHT22;63678;47.994;7.854;2023-09-19T04:52:45;17.80;99.90
2453;DHT22;63678;47.994;7.854;2023-09-19T04:55:23;17.80;99.90
2453;DHT22;63678;47.994;7.854;2023-09-19T04:57:55;17.80;99.90
2453;DHT22;63678;47.994;7.854;2023-09-19T05:00:28;17.80;99.90
2453;DHT22;63678;47.994;7.854;2023-09-19T05:03:02;17.80;99.90
2453;DHT22;63678;47.994;7.854;2023-09-19T05:05:36;17.90;99.90
2453;DHT22;63678;47.994;7.854;2023-09-19T05:08:12;17.80;99.90
2453;DHT22;63678;47.994;7.854;2023-09-19T05:10:46;17.80;99.90
2453;DHT22;63678;47.994;7.854;2023-09-19T05:13:19;17.80;99.90
2453;DHT22;63678;47.994;7.854;2023-09-19T05:15:51;17.90;99.90
2453;DHT22;63678;47.994;7.854;2023-09-19T05:18:24;17.90;99.90
2453;DHT22;63678;47.994;7.854;2023-09-19T05:20:57;17.90;99.90
2453;DHT22;63678;47.994;7.854;2023-09-19T05:23:30;17.90;99.90
2453;DHT22;63678;47.994;7.854;2023-09-19T05:26:03;17.90;99.90
2453;DHT22;63678;47.994;7.854;2023-09-19T05:28:36;17.90;99.90
2453;DHT22;63678;47.994;7.854;2023-09-19T05:33:43;17.90;99.90
2453;DHT22;63678;47.994;7.854;2023-09-19T05:36:15;18.00;99.90
2453;DHT22;63678;47.994;7.854;2023-09-19T05:38:49;17.90;99.90
2453;DHT22;63678;47.994;7.854;2023-09-19T05:41:22;18.00;99.90
2453;DHT22;63678;47.994;7.854;2023-09-19T05:43:55;18.10;99.90
2453;DHT22;63678;47.994;7.854;2023-09-19T05:46:28;18.00;99.90
2453;DHT22;63678;47.994;7.854;2023-09-19T05:49:02;18.00;99.90
2453;DHT22;63678;47.994;7.854;2023-09-19T05:51:35;18.00;99.90
2453;DHT22;63678;47.994;7.854;2023-09-19T05:54:07;18.10;99.90
2453;DHT22;63678;47.994;7.854;2023-09-19T05:56:40;18.10;99.90
2453;DHT22;63678;47.994;7.854;2023-09-19T05:59:14;19.00;99.90
2453;DHT22;63678;47.994;7.854;2023-09-19T06:01:47;18.20;99.90
2453;DHT22;63678;47.994;7.854;2023-09-19T06:04:20;18.20;99.90
2453;DHT22;63678;47.994;7.854;2023-09-19T06:06:53;18.40;99.90
2453;DHT22;63678;47.994;7.854;2023-09-19T06:09:26;18.30;99.90
2453;DHT22;63678;47.994;7.854;2023-09-19T06:11:59;18.40;99.90
2453;DHT22;63678;47.994;7.854;2023-09-19T06:14:36;18.50;99.90
2453;DHT22;63678;47.994;7.854;2023-09-19T06:19:43;18.40;99.90
2453;DHT22;63678;47.994;7.854;2023-09-19T06:24:52;18.30;99.90
2453;DHT22;63678;47.994;7.854;2023-09-19T06:29:58;18.10;99.90
2453;DHT22;63678;47.994;7.854;2023-09-19T06:32:59;18.10;99.90
2453;DHT22;63678;47.994;7.854;2023-09-19T06:35:36;18.20;99.90
2453;DHT22;63678;47.994;7.854;2023-09-19T06:40:45;18.30;99.90
2453;DHT22;63678;47.994;7.854;2023-09-19T06:43:38;18.30;99.90
2453;DHT22;63678;47.994;7.854;2023-09-19T06:46:11;18.20;99.90
2453;DHT22;63678;47.994;7.854;2023-09-19T06:48:44;18.10;99.90
2453;DHT22;63678;47.994;7.854;2023-09-19T06:51:18;18.20;99.90
2453;DHT22;63678;47.994;7.854;2023-09-19T06:53:51;18.30;99.90
2453;DHT22;63678;47.994;7.854;2023-09-19T06:56:28;18.40;99.90
2453;DHT22;63678;47.994;7.854;2023-09-19T06:59:01;18.50;99.90
2453;DHT22;63678;47.994;7.854;2023-09-19T07:01:35;18.50;99.90
2453;DHT22;63678;47.994;7.854;2023-09-19T07:06:42;18.60;99.90
2453;DHT22;63678;47.994;7.854;2023-09-19T07:09:15;18.60;99.90
2453;DHT22;63678;47.994;7.854;2023-09-19T07:11:48;18.70;99.90
2453;DHT22;63678;47.994;7.854;2023-09-19T07:14:23;18.80;99.90
2453;DHT22;63678;47.994;7.854;2023-09-19T07:16:55;18.70;99.90
2453;DHT22;63678;47.994;7.854;2023-09-19T07:19:28;18.60;99.90
2453;DHT22;63678;47.994;7.854;2023-09-19T07:22:00;18.80;99.90
2453;DHT22;63678;47.994;7.854;2023-09-19T07:24:34;18.90;99.90
2453;DHT22;63678;47.994;7.854;2023-09-19T07:29:41;18.90;99.90
2453;DHT22;63678;47.994;7.854;2023-09-19T07:32:13;18.90;99.90
2453;DHT22;63678;47.994;7.854;2023-09-19T07:34:46;18.90;99.90
2453;DHT22;63678;47.994;7.854;2023-09-19T07:37:22;19.10;99.90
2453;DHT22;63678;47.994;7.854;2023-09-19T07:39:58;19.10;99.90
2453;DHT22;63678;47.994;7.854;2023-09-19T07:42:30;19.10;99.90
2453;DHT22;63678;47.994;7.854;2023-09-19T07:45:10;18.80;99.90
2453;DHT22;63678;47.994;7.854;2023-09-19T07:47:51;18.70;99.90
2453;DHT22;63678;47.994;7.854;2023-09-19T07:50:24;18.80;99.90
2453;DHT22;63678;47.994;7.854;2023-09-19T08:00:40;19.10;99.90
2453;DHT22;63678;47.994;7.854;2023-09-19T08:05:48;19.20;99.90
2453;DHT22;63678;47.994;7.854;2023-09-19T08:08:21;19.10;99.90
2453;DHT22;63678;47.994;7.854;2023-09-19T08:10:54;19.20;99.90
2453;DHT22;63678;47.994;7.854;2023-09-19T08:13:31;19.20;99.90
2453;DHT22;63678;47.994;7.854;2023-09-19T08:16:04;19.20;99.90
2453;DHT22;63678;47.994;7.854;2023-09-19T08:18:38;19.30;99.90
2453;DHT22;63678;47.994;7.854;2023-09-19T08:21:14;19.50;99.90
2453;DHT22;63678;47.994;7.854;2023-09-19T08:23:48;19.60;99.90
2453;DHT22;63678;47.994;7.854;2023-09-19T08:26:21;20.00;99.90
2453;DHT22;63678;47.994;7.854;2023-09-19T08:28:54;21.00;99.90
2453;DHT22;63678;47.994;7.854;2023-09-19T08:31:47;21.90;99.90
2453;DHT22;63678;47.994;7.854;2023-09-19T08:34:25;21.40;99.90
2453;DHT22;63678;47.994;7.854;2023-09-19T08:37:00;20.90;99.90
2453;DHT22;63678;47.994;7.854;2023-09-19T08:39:32;20.40;99.90
2453;DHT22;63678;47.994;7.854;2023-09-19T08:42:07;21.10;99.90
2453;DHT22;63678;47.994;7.854;2023-09-19T08:44:40;21.40;99.90
2453;DHT22;63678;47.994;7.854;2023-09-19T08:47:16;22.30;99.90
2453;DHT22;63678;47.994;7.854;2023-09-19T08:50:04;22.40;99.90
2453;DHT22;63678;47.994;7.854;2023-09-19T08:52:46;22.50;99.90
2453;DHT22;63678;47.994;7.854;2023-09-19T08:55:27;22.30;99.90
2453;DHT22;63678;47.994;7.854;2023-09-19T08:58:07;22.60;99.90
2453;DHT22;63678;47.994;7.854;2023-09-19T09:00:44;23.70;99.90
2453;DHT22;63678;47.994;7.854;2023-09-19T09:03:22;23.70;99.90
2453;DHT22;63678;47.994;7.854;2023-09-19T09:05:55;22.70;99.90
2453;DHT22;63678;47.994;7.854;2023-09-19T09:08:31;23.20;99.90
2453;DHT22;63678;47.994;7.854;2023-09-19T09:11:04;23.60;99.90
2453;DHT22;63678;47.994;7.854;2023-09-19T09:13:40;23.70;99.90
2453;DHT22;63678;47.994;7.854;2023-09-19T09:16:14;22.50;99.90
2453;DHT22;63678;47.994;7.854;2023-09-19T09:18:51;22.00;99.90
2453;DHT22;63678;47.994;7.854;2023-09-19T09:21:27;21.50;99.90
2453;DHT22;63678;47.994;7.854;2023-09-19T09:24:00;22.60;99.90
2453;DHT22;63678;47.994;7.854;2023-09-19T09:26:42;22.90;99.90
2453;DHT22;63678;47.994;7.854;2023-09-19T09:29:40;23.50;99.90
2453;DHT22;63678;47.994;7.854;2023-09-19T09:32:17;22.90;99.90
2453;DHT22;63678;47.994;7.854;2023-09-19T09:34:55;23.30;99.90
2453;DHT22;63678;47.994;7.854;2023-09-19T09:37:32;23.40;99.90
2453;DHT22;63678;47.994;7.854;2023-09-19T09:40:06;23.80;99.90
2453;DHT22;63678;47.994;7.854;2023-09-19T09:42:48;23.70;99.90
2453;DHT22;63678;47.994;7.854;2023-09-19T09:45:24;25.20;99.90
2453;DHT22;63678;47.994;7.854;2023-09-19T09:48:06;24.30;99.90
2453;DHT22;63678;47.994;7.854;2023-09-19T09:50:48;24.70;99.90
2453;DHT22;63678;47.994;7.854;2023-09-19T09:53:28;24.70;99.90
2453;DHT22;63678;47.994;7.854;2023-09-19T09:56:24;23.10;99.90
2453;DHT22;63678;47.994;7.854;2023-09-19T09:59:00;21.80;99.90
2453;DHT22;63678;47.994;7.854;2023-09-19T10:01:47;22.00;99.90
2453;DHT22;63678;47.994;7.854;2023-09-19T10:04:29;23.20;99.90
2453;DHT22;63678;47.994;7.854;2023-09-19T10:09:47;23.40;99.90
2453;DHT22;63678;47.994;7.854;2023-09-19T10:12:20;22.70;99.90
2453;DHT22;63678;47.994;7.854;2023-09-19T10:14:55;22.00;99.90
2453;DHT22;63678;47.994;7.854;2023-09-19T10:17:31;22.90;99.90
2453;DHT22;63678;47.994;7.854;2023-09-19T10:20:07;22.60;99.90
2453;DHT22;63678;47.994;7.854;2023-09-19T10:22:51;23.00;99.90
2453;DHT22;63678;47.994;7.854;2023-09-19T10:25:30;22.40;99.90
2453;DHT22;63678;47.994;7.854;2023-09-19T10:28:10;23.40;99.90
2453;DHT22;63678;47.994;7.854;2023-09-19T10:30:46;23.50;99.90
2453;DHT22;63678;47.994;7.854;2023-09-19T10:33:23;23.30;99.90
2453;DHT22;63678;47.994;7.854;2023-09-19T10:35:59;23.50;99.90
2453;DHT22;63678;47.994;7.854;2023-09-19T10:38:33;24.20;99.90
2453;DHT22;63678;47.994;7.854;2023-09-19T10:41:08;24.20;99.90
2453;DHT22;63678;47.994;7.854;2023-09-19T10:43:43;24.00;99.90
2453;DHT22;63678;47.994;7.854;2023-09-19T10:46:18;23.90;99.90
2453;DHT22;63678;47.994;7.854;2023-09-19T10:48:51;24.50;99.90
2453;DHT22;63678;47.994;7.854;2023-09-19T10:51:30;24.80;99.90
2453;DHT22;63678;47.994;7.854;2023-09-19T10:54:11;23.80;99.90
2453;DHT22;63678;47.994;7.854;2023-09-19T10:56:50;23.70;99.90
2453;DHT22;63678;47.994;7.854;2023-09-19T10:59:23;23.00;99.90
2453;DHT22;63678;47.994;7.854;2023-09-19T11:01:57;22.60;99.90
2453;DHT22;63678;47.994;7.854;2023-09-19T11:04:31;23.10;99.90
2453;DHT22;63678;47.994;7.854;2023-09-19T11:07:09;23.70;99.90
2453;DHT22;63678;47.994;7.854;2023-09-19T11:09:55;24.20;99.90
2453;DHT22;63678;47.994;7.854;2023-09-19T11:27:13;23.60;99.90
2453;DHT22;63678;47.994;7.854;2023-09-19T11:30:27;24.40;99.90
2453;DHT22;63678;47.994;7.854;2023-09-19T11:33:28;23.40;99.90
2453;DHT22;63678;47.994;7.854;2023-09-19T11:36:16;23.90;99.90
2453;DHT22;63678;47.994;7.854;2023-09-19T11:46:53;24.90;99.90
2453;DHT22;63678;47.994;7.854;2023-09-19T11:49:33;24.60;99.90
2453;DHT22;63678;47.994;7.854;2023-09-19T11:52:07;24.20;99.90
2453;DHT22;63678;47.994;7.854;2023-09-19T11:54:41;24.40;99.90
2453;DHT22;63678;47.994;7.854;2023-09-19T11:57:20;24.70;99.90
2453;DHT22;63678;47.994;7.854;2023-09-19T11:59:53;24.60;99.90
2453;DHT22;63678;47.994;7.854;2023-09-19T12:02:39;24.60;99.90
2453;DHT22;63678;47.994;7.854;2023-09-19T12:05:14;24.50;99.90
2453;DHT22;63678;47.994;7.854;2023-09-19T12:07:48;25.00;99.90
2453;DHT22;63678;47.994;7.854;2023-09-19T12:12:55;24.70;99.90
2453;DHT22;63678;47.994;7.854;2023-09-19T12:15:29;25.30;99.90
2453;DHT22;63678;47.994;7.854;2023-09-19T12:18:07;25.40;99.90
2453;DHT22;63678;47.994;7.854;2023-09-19T12:20:44;25.10;99.90
2453;DHT22;63678;47.994;7.854;2023-09-19T12:23:22;25.30;99.90
2453;DHT22;63678;47.994;7.854;2023-09-19T12:25:55;25.10;99.90
2453;DHT22;63678;47.994;7.854;2023-09-19T12:28:30;25.10;99.90
2453;DHT22;63678;47.994;7.854;2023-09-19T12:33:40;25.00;99.90
2453;DHT22;63678;47.994;7.854;2023-09-19T12:36:21;25.30;99.90
2453;DHT22;63678;47.994;7.854;2023-09-19T12:39:01;25.40;99.90
2453;DHT22;63678;47.994;7.854;2023-09-19T12:41:40;25.20;99.90
2453;DHT22;63678;47.994;7.854;2023-09-19T12:44:14;24.70;99.90
2453;DHT22;63678;47.994;7.854;2023-09-19T12:46:48;24.60;99.90
2453;DHT22;63678;47.994;7.854;2023-09-19T12:49:20;24.40;99.90
2453;DHT22;63678;47.994;7.854;2023-09-19T12:51:55;24.20;99.90
2453;DHT22;63678;47.994;7.854;2023-09-19T12:54:39;23.90;99.90
2453;DHT22;63678;47.994;7.854;2023-09-19T12:57:24;24.20;99.90
2453;DHT22;63678;47.994;7.854;2023-09-19T13:02:31;24.40;99.90
2453;DHT22;63678;47.994;7.854;2023-09-19T13:05:05;24.80;99.90
2453;DHT22;63678;47.994;7.854;2023-09-19T13:07:43;24.40;99.90
2453;DHT22;63678;47.994;7.854;2023-09-19T13:10:18;24.10;99.90
2453;DHT22;63678;47.994;7.854;2023-09-19T13:12:55;24.40;99.90
2453;DHT22;63678;47.994;7.854;2023-09-19T13:15:28;24.40;99.90
2453;DHT22;63678;47.994;7.854;2023-09-19T13:18:11;24.30;99.90
2453;DHT22;63678;47.994;7.854;2023-09-19T13:21:05;24.40;99.90
2453;DHT22;63678;47.994;7.854;2023-09-19T13:23:43;24.90;99.90
2453;DHT22;63678;47.994;7.854;2023-09-19T13:26:15;25.00;99.90
2453;DHT22;63678;47.994;7.854;2023-09-19T13:28:48;24.80;99.90
2453;DHT22;63678;47.994;7.854;2023-09-19T13:31:21;24.60;99.90
2453;DHT22;63678;47.994;7.854;2023-09-19T13:33:56;24.00;99.90
2453;DHT22;63678;47.994;7.854;2023-09-19T13:36:28;24.00;99.90
2453;DHT22;63678;47.994;7.854;2023-09-19T13:39:00;24.50;99.90
2453;DHT22;63678;47.994;7.854;2023-09-19T13:46:44;24.40;99.90
2453;DHT22;63678;47.994;7.854;2023-09-19T13:51:54;24.90;99.90
2453;DHT22;63678;47.994;7.854;2023-09-19T13:57:00;24.70;99.90
2453;DHT22;63678;47.994;7.854;2023-09-19T14:02:05;24.60;99.90
2453;DHT22;63678;47.994;7.854;2023-09-19T14:04:39;24.80;99.90
2453;DHT22;63678;47.994;7.854;2023-09-19T14:09:47;24.20;99.90
2453;DHT22;63678;47.994;7.854;2023-09-19T14:14:53;24.50;99.90
2453;DHT22;63678;47.994;7.854;2023-09-19T14:17:28;24.30;99.90
2453;DHT22;63678;47.994;7.854;2023-09-19T14:20:01;24.40;99.90
2453;DHT22;63678;47.994;7.854;2023-09-19T14:22:33;24.40;99.90
2453;DHT22;63678;47.994;7.854;2023-09-19T14:25:06;24.50;99.90
2453;DHT22;63678;47.994;7.854;2023-09-19T14:30:14;24.50;99.90
2453;DHT22;63678;47.994;7.854;2023-09-19T14:32:46;24.40;99.90
2453;DHT22;63678;47.994;7.854;2023-09-19T14:35:19;24.50;99.90
2453;DHT22;63678;47.994;7.854;2023-09-19T14:37:51;24.70;99.90
2453;DHT22;63678;47.994;7.854;2023-09-19T14:42:58;24.30;99.90
2453;DHT22;63678;47.994;7.854;2023-09-19T14:45:31;24.10;99.90
2453;DHT22;63678;47.994;7.854;2023-09-19T14:48:04;24.10;99.90
2453;DHT22;63678;47.994;7.854;2023-09-19T14:50:37;24.20;99.90
2453;DHT22;63678;47.994;7.854;2023-09-19T14:53:10;24.30;99.90
2453;DHT22;63678;47.994;7.854;2023-09-19T14:55:44;24.20;99.90
2453;DHT22;63678;47.994;7.854;2023-09-19T14:58:19;24.30;99.90
2453;DHT22;63678;47.994;7.854;2023-09-19T15:00:53;24.40;99.90
2453;DHT22;63678;47.994;7.854;2023-09-19T15:03:26;24.40;99.90
2453;DHT22;63678;47.994;7.854;2023-09-19T15:06:01;24.30;99.90
2453;DHT22;63678;47.994;7.854;2023-09-19T15:08:37;24.20;99.90
2453;DHT22;63678;47.994;7.854;2023-09-19T15:11:14;24.10;99.90
2453;DHT22;63678;47.994;7.854;2023-09-19T15:13:52;23.90;99.90
2453;DHT22;63678;47.994;7.854;2023-09-19T15:16:26;24.00;99.90
2453;DHT22;63678;47.994;7.854;2023-09-19T15:21:32;24.10;99.90
2453;DHT22;63678;47.994;7.854;2023-09-19T15:24:05;24.10;99.90
2453;DHT22;63678;47.994;7.854;2023-09-19T15:26:41;24.00;99.90
2453;DHT22;63678;47.994;7.854;2023-09-19T15:29:16;23.90;99.90
2453;DHT22;63678;47.994;7.854;2023-09-19T15:31:48;23.90;99.90
2453;DHT22;63678;47.994;7.854;2023-09-19T15:39:30;23.90;99.90
2453;DHT22;63678;47.994;7.854;2023-09-19T15:42:06;23.90;99.90
2453;DHT22;63678;47.994;7.854;2023-09-19T15:44:38;23.80;99.90
2453;DHT22;63678;47.994;7.854;2023-09-19T15:47:11;23.70;99.90
2453;DHT22;63678;47.994;7.854;2023-09-19T15:49:45;23.80;99.90
2453;DHT22;63678;47.994;7.854;2023-09-19T15:52:18;23.80;99.90
2453;DHT22;63678;47.994;7.854;2023-09-19T15:54:50;23.80;99.90
2453;DHT22;63678;47.994;7.854;2023-09-19T15:57:24;23.70;99.90
2453;DHT22;63678;47.994;7.854;2023-09-19T15:59:56;23.70;99.90
2453;DHT22;63678;47.994;7.854;2023-09-19T16:05:03;23.80;99.90
2453;DHT22;63678;47.994;7.854;2023-09-19T16:07:37;23.70;99.90
2453;DHT22;63678;47.994;7.854;2023-09-19T16:10:10;23.60;99.90
2453;DHT22;63678;47.994;7.854;2023-09-19T16:12:43;23.60;99.90
2453;DHT22;63678;47.994;7.854;2023-09-19T16:15:15;23.50;99.90
2453;DHT22;63678;47.994;7.854;2023-09-19T16:20:20;23.40;99.90
2453;DHT22;63678;47.994;7.854;2023-09-19T16:22:55;23.20;99.90
2453;DHT22;63678;47.994;7.854;2023-09-19T16:28:00;23.20;99.90
2453;DHT22;63678;47.994;7.854;2023-09-19T16:33:07;23.00;99.90
2453;DHT22;63678;47.994;7.854;2023-09-19T16:35:40;23.10;99.90
2453;DHT22;63678;47.994;7.854;2023-09-19T16:38:13;23.10;99.90
2453;DHT22;63678;47.994;7.854;2023-09-19T16:40:56;23.10;99.90
2453;DHT22;63678;47.994;7.854;2023-09-19T16:43:32;23.10;99.90
2453;DHT22;63678;47.994;7.854;2023-09-19T16:46:06;23.00;99.90
2453;DHT22;63678;47.994;7.854;2023-09-19T16:48:44;23.00;99.90
2453;DHT22;63678;47.994;7.854;2023-09-19T16:51:22;22.90;99.90
2453;DHT22;63678;47.994;7.854;2023-09-19T16:53:54;23.00;99.90
2453;DHT22;63678;47.994;7.854;2023-09-19T16:56:27;22.90;99.90
2453;DHT22;63678;47.994;7.854;2023-09-19T17:04:09;22.60;99.90
2453;DHT22;63678;47.994;7.854;2023-09-19T17:06:42;22.60;99.90
2453;DHT22;63678;47.994;7.854;2023-09-19T17:09:18;22.60;99.90
2453;DHT22;63678;47.994;7.854;2023-09-19T17:11:51;22.50;99.90
2453;DHT22;63678;47.994;7.854;2023-09-19T17:14:23;22.40;99.90
2453;DHT22;63678;47.994;7.854;2023-09-19T17:16:56;22.30;99.90
2453;DHT22;63678;47.994;7.854;2023-09-19T17:19:29;22.20;99.90
2453;DHT22;63678;47.994;7.854;2023-09-19T17:22:01;22.10;99.90
2453;DHT22;63678;47.994;7.854;2023-09-19T17:29:40;22.00;99.90
2453;DHT22;63678;47.994;7.854;2023-09-19T17:34:47;21.80;99.90
2453;DHT22;63678;47.994;7.854;2023-09-19T17:37:22;21.80;99.90
2453;DHT22;63678;47.994;7.854;2023-09-19T17:39:54;21.80;99.90
2453;DHT22;63678;47.994;7.854;2023-09-19T17:42:26;21.70;99.90
2453;DHT22;63678;47.994;7.854;2023-09-19T17:47:32;21.60;99.90
2453;DHT22;63678;47.994;7.854;2023-09-19T17:50:05;21.50;99.90
2453;DHT22;63678;47.994;7.854;2023-09-19T17:52:40;21.50;99.90
2453;DHT22;63678;47.994;7.854;2023-09-19T17:55:13;21.40;99.90
2453;DHT22;63678;47.994;7.854;2023-09-19T18:00:23;21.40;99.90
2453;DHT22;63678;47.994;7.854;2023-09-19T18:05:29;21.20;99.90
2453;DHT22;63678;47.994;7.854;2023-09-19T18:08:02;21.10;99.90
2453;DHT22;63678;47.994;7.854;2023-09-19T18:10:38;21.20;99.90
2453;DHT22;63678;47.994;7.854;2023-09-19T18:13:10;21.10;99.90
2453;DHT22;63678;47.994;7.854;2023-09-19T18:15:44;21.00;99.90
2453;DHT22;63678;47.994;7.854;2023-09-19T18:18:16;21.00;99.90
2453;DHT22;63678;47.994;7.854;2023-09-19T18:25:57;21.00;99.90
2453;DHT22;63678;47.994;7.854;2023-09-19T18:31:07;20.90;99.90
2453;DHT22;63678;47.994;7.854;2023-09-19T18:33:40;20.70;99.90
2453;DHT22;63678;47.994;7.854;2023-09-19T18:38:45;20.60;99.90
2453;DHT22;63678;47.994;7.854;2023-09-19T18:41:18;20.60;99.90
2453;DHT22;63678;47.994;7.854;2023-09-19T18:43:51;20.40;99.90
2453;DHT22;63678;47.994;7.854;2023-09-19T18:48:57;20.30;99.90
2453;DHT22;63678;47.994;7.854;2023-09-19T18:51:29;20.10;99.90
2453;DHT22;63678;47.994;7.854;2023-09-19T18:54:02;20.20;99.90
2453;DHT22;63678;47.994;7.854;2023-09-19T18:56:44;20.30;99.90
2453;DHT22;63678;47.994;7.854;2023-09-19T18:59:17;19.90;99.90
2453;DHT22;63678;47.994;7.854;2023-09-19T19:01:53;20.00;99.90
2453;DHT22;63678;47.994;7.854;2023-09-19T19:04:26;19.70;99.90
2453;DHT22;63678;47.994;7.854;2023-09-19T19:06:59;19.80;99.90
2453;DHT22;63678;47.994;7.854;2023-09-19T19:12:04;20.00;99.90
2453;DHT22;63678;47.994;7.854;2023-09-19T19:17:11;20.00;99.90
2453;DHT22;63678;47.994;7.854;2023-09-19T19:19:49;19.70;99.90
2453;DHT22;63678;47.994;7.854;2023-09-19T19:22:22;19.90;99.90
2453;DHT22;63678;47.994;7.854;2023-09-19T19:24:54;19.70;99.90
2453;DHT22;63678;47.994;7.854;2023-09-19T19:27:28;19.40;99.90
2453;DHT22;63678;47.994;7.854;2023-09-19T19:30:01;19.50;99.90
2453;DHT22;63678;47.994;7.854;2023-09-19T19:32:35;19.20;99.90
2453;DHT22;63678;47.994;7.854;2023-09-19T19:35:08;19.20;99.90
2453;DHT22;63678;47.994;7.854;2023-09-19T19:37:43;19.70;99.90
2453;DHT22;63678;47.994;7.854;2023-09-19T19:40:15;19.40;99.90
2453;DHT22;63678;47.994;7.854;2023-09-19T19:42:48;19.30;99.90
2453;DHT22;63678;47.994;7.854;2023-09-19T19:45:21;19.10;99.90
2453;DHT22;63678;47.994;7.854;2023-09-19T19:47:53;18.90;99.90
2453;DHT22;63678;47.994;7.854;2023-09-19T19:50:27;19.00;99.90
2453;DHT22;63678;47.994;7.854;2023-09-19T19:53:00;19.20;99.90